Time;durP1;ratioP1;P1;durP2;ratioP2;P2;SDS_P1;SDS_P2;PMS_P1;PMS_P2;Temp;Humidity;BMP_temperature;BMP_pressure;BME280_temperature;BME280_humidity;BME280_pressure;Samples;Min_cycle;Max_cycle;Signal;HPM_P1;HPM_P2
2022/03/11 00:01:24;;;;;;;37.83;20.25;;;;;;;7.70;44.00;101758.69;5019558;28;20624;-74
2022/03/11 00:04:10;;;;;;;50.83;22.38;;;;;;;7.71;42.41;101752.22;5014158;28;20512;-73
2022/03/11 00:06:55;;;;;;;;;;;;;;;7.83;42.68;101761.94;5014201;28;20041;-73
2022/03/11 00:09:39;;;;;;;56.40;27.90;;;;;;;7.84;42.39;101758.16;5013270;28;19917;-73
2022/03/11 00:12:25;;;;;;;61.42;29.60;;;;;;;7.93;42.25;101751.91;5005687;28;20052;-73
2022/03/11 00:15:10;;;;;;;44.45;21.17;;;;;;;7.97;42.95;101758.44;5019278;28;20377;-73
2022/03/11 00:17:56;;;;;;;56.47;27.75;;;;;;;7.97;42.24;101757.63;5033214;28;20052;-73
2022/03/11 00:20:41;;;;;;;63.47;29.77;;;;;;;8.04;42.09;101767.06;5033093;28;20056;-73
2022/03/11 00:23:26;;;;;;;51.55;24.00;;;;;;;8.17;41.50;101760.31;5033186;28;20052;-73
2022/03/11 00:26:11;;;;;;;55.90;24.33;;;;;;;8.17;42.16;101771.16;5033063;28;20045;-73
2022/03/11 00:28:56;;;;;;;;;;;;;;;8.08;41.84;101776.28;5033238;28;20056;-74
2022/03/11 00:31:40;;;;;;;58.08;27.88;;;;;;;8.14;41.75;101769.78;5032980;28;19913;-74
2022/03/11 00:34:25;;;;;;;45.97;23.00;;;;;;;8.12;41.86;101776.56;5033066;28;20060;-74
2022/03/11 00:37:10;;;;;;;45.72;21.67;;;;;;;8.12;42.00;101771.97;5032931;28;20052;-73
2022/03/11 00:39:55;;;;;;;46.63;22.77;;;;;;;8.10;42.60;101779.53;5032791;28;20052;-74
2022/03/11 00:42:40;;;;;;;50.72;23.83;;;;;;;7.94;41.79;101768.97;5032890;28;20056;-75
2022/03/11 00:45:25;;;;;;;;;;;;;;;7.98;42.01;101780.88;5033197;28;20100;-76
2022/03/11 00:48:10;;;;;;;50.67;26.75;;;;;;;7.96;41.73;101775.75;5032895;28;19942;-75
2022/03/11 00:50:57;;;;;;;48.20;26.98;;;;;;;7.91;41.95;101783.88;5024264;28;20053;-75
2022/03/11 00:53:42;;;;;;;59.45;29.10;;;;;;;7.82;42.17;101793.66;5024369;28;20512;-76
2022/03/11 00:56:30;;;;;;;56.85;23.75;;;;;;;7.82;42.24;101790.94;5032726;28;20052;-76
2022/03/11 00:59:15;;;;;;;61.05;28.88;;;;;;;7.77;43.58;101796.34;5032287;28;20535;-76
2022/03/11 01:02:00;;;;;;;;;;;;;;;7.85;41.91;101803.09;5033035;28;20063;-75
2022/03/11 01:04:47;;;;;;;54.42;26.90;;;;;;;7.81;42.28;101792.00;5024159;28;19913;-75
2022/03/11 01:07:32;;;;;;;59.92;29.77;;;;;;;7.99;42.35;101782.53;5032703;28;20532;-75
2022/03/11 01:10:18;;;;;;;52.60;26.23;;;;;;;8.03;43.15;101791.72;5023914;28;20048;-74
2022/03/11 01:13:05;;;;;;;57.83;27.73;;;;;;;8.03;44.23;101787.13;5023949;28;20094;-75
2022/03/11 01:15:50;;;;;;;54.05;26.67;;;;;;;8.01;46.04;101780.38;5032310;28;20048;-74
2022/03/11 01:18:35;;;;;;;47.03;23.17;;;;;;;8.05;46.66;101784.97;5020052;28;20056;-73
2022/03/11 01:21:20;;;;;;;40.85;20.48;;;;;;;8.02;48.27;101787.41;5023324;28;20053;-73
2022/03/11 01:24:06;;;;;;;44.38;23.00;;;;;;;8.06;49.85;101783.88;5023864;28;20048;-74
2022/03/11 01:26:51;;;;;;;45.33;24.52;;;;;;;8.00;51.26;101781.44;5020017;28;20076;-73
2022/03/11 01:29:36;;;;;;;40.03;21.65;;;;;;;8.05;52.06;101786.84;5031782;28;20242;-74
2022/03/11 01:32:21;;;;;;;37.28;20.33;;;;;;;8.17;51.76;101790.09;5032149;28;20048;-73
2022/03/11 01:35:07;;;;;;;40.97;21.08;;;;;;;8.25;52.46;101794.97;5023698;28;20044;-73
2022/03/11 01:37:52;;;;;;;54.75;26.05;;;;;;;8.24;52.07;101793.34;5032046;28;20060;-74
2022/03/11 01:40:37;;;;;;;59.40;22.02;;;;;;;8.21;52.40;101785.75;5031814;28;20447;-74
2022/03/11 01:43:22;;;;;;;38.67;23.48;;;;;;;8.23;52.37;101789.00;5031942;28;20542;-74
2022/03/11 01:46:07;;;;;;;41.60;24.15;;;;;;;8.20;52.75;101794.97;5031850;28;20048;-74
2022/03/11 01:48:51;;;;;;;40.22;22.90;;;;;;;8.18;53.66;101795.22;5023519;28;20060;-73
2022/03/11 01:51:39;;;;;;;44.15;22.48;;;;;;;8.20;53.68;101799.56;5031972;28;20405;-73
2022/03/11 01:54:24;;;;;;;61.25;26.17;;;;;;;8.18;53.73;101795.22;5031900;28;20052;-76
2022/03/11 01:57:09;;;;;;;36.03;18.88;;;;;;;8.25;53.98;101802.28;5019500;28;20052;-74
2022/03/11 01:59:56;;;;;;;47.80;25.65;;;;;;;8.18;54.32;101789.81;5031569;28;20056;-73
2022/03/11 02:02:43;;;;;;;48.65;25.70;;;;;;;8.27;54.14;101800.94;5031760;28;20048;-74
2022/03/11 02:05:28;;;;;;;49.05;27.35;;;;;;;8.31;53.89;101809.34;5031653;28;20073;-73
2022/03/11 02:08:14;;;;;;;40.22;20.48;;;;;;;8.27;53.85;101800.94;5031835;28;20049;-74
2022/03/11 02:10:59;;;;;;;54.10;26.55;;;;;;;8.18;54.31;101803.34;5023286;28;20056;-75
2022/03/11 02:13:44;;;;;;;;;;;;;;;8.23;54.48;101799.03;5017536;28;20052;-75
2022/03/11 02:16:31;;;;;;;48.60;24.85;;;;;;;8.40;53.91;101802.28;5031640;28;19913;-75
2022/03/11 02:19:16;;;;;;;46.33;24.48;;;;;;;8.49;53.72;101798.75;5031513;28;20061;-75
2022/03/11 02:22:02;;;;;;;37.95;19.08;;;;;;;8.57;53.71;101791.97;5025411;28;20045;-75
2022/03/11 02:24:47;;;;;;;43.05;23.20;;;;;;;8.62;53.54;101802.78;5032345;28;20056;-75
2022/03/11 02:27:36;;;;;;;39.92;21.55;;;;;;;8.60;53.97;101799.53;5029236;28;20527;-73
2022/03/11 02:30:21;;;;;;;46.00;23.30;;;;;;;8.48;54.24;101805.25;5016842;28;20048;-74
2022/03/11 02:33:06;;;;;;;36.47;19.00;;;;;;;8.52;54.03;101813.66;5033197;28;20450;-73
2022/03/11 02:35:51;;;;;;;39.83;17.73;;;;;;;8.47;53.94;101806.34;5035245;28;20049;-73
2022/03/11 02:38:37;;;;;;;31.58;18.17;;;;;;;8.45;54.43;101803.09;5035339;28;20056;-74
2022/03/11 02:41:22;;;;;;;45.53;21.98;;;;;;;8.46;54.52;101791.16;5038510;28;20052;-74
2022/03/11 02:44:07;;;;;;;29.33;16.83;;;;;;;8.47;54.62;101794.69;5040798;28;20512;-74
2022/03/11 02:46:52;;;;;;;38.83;17.92;;;;;;;8.52;55.10;101803.63;5034838;28;20040;-74
2022/03/11 02:49:37;;;;;;;31.30;17.10;;;;;;;8.57;54.43;101800.91;5034978;28;20515;-74
2022/03/11 02:52:23;;;;;;;27.52;16.13;;;;;;;8.59;54.54;101800.59;5040626;28;20052;-74
2022/03/11 02:55:08;;;;;;;30.58;15.40;;;;;;;8.66;54.58;101803.84;5040640;28;20072;-75
2022/03/11 02:57:52;;;;;;;;;;;;;;;8.63;54.53;101799.00;5035281;28;20064;-74
2022/03/11 03:00:37;;;;;;;36.45;18.98;;;;;;;8.64;54.08;101799.78;5040296;28;19917;-74
2022/03/11 03:03:22;;;;;;;25.58;15.15;;;;;;;8.55;54.90;101800.34;5040467;28;20048;-74
2022/03/11 03:06:07;;;;;;;23.88;14.65;;;;;;;8.70;54.49;101804.09;5039143;28;20048;-74
2022/03/11 03:08:52;;;;;;;31.48;14.25;;;;;;;8.54;54.73;101803.34;5040288;28;20052;-75
2022/03/11 03:11:37;;;;;;;18.70;11.20;;;;;;;8.52;54.92;101797.41;5034726;28;20511;-74
2022/03/11 03:14:22;;;;;;;25.85;13.73;;;;;;;8.56;55.78;101793.84;5040229;28;20068;-76
2022/03/11 03:17:07;;;;;;;29.58;15.32;;;;;;;8.54;55.48;101801.44;5034476;28;20064;-76
2022/03/11 03:19:52;;;;;;;23.58;12.75;;;;;;;8.66;55.10;101800.34;5034378;28;20053;-74
2022/03/11 03:22:37;;;;;;;36.45;14.98;;;;;;;8.57;55.22;101809.03;5034519;28;20060;-75
2022/03/11 03:25:22;;;;;;;22.80;13.32;;;;;;;8.57;55.65;101798.19;5034323;28;20048;-76
2022/03/11 03:28:07;;;;;;;19.13;11.98;;;;;;;8.39;55.89;101806.06;5034537;28;20061;-75
2022/03/11 03:30:51;;;;;;;24.75;12.90;;;;;;;8.41;56.03;101795.78;5052681;22;20033;-72
2022/03/11 03:33:36;;;;;;;23.08;9.88;;;;;;;8.43;56.01;101805.25;5029485;28;20062;-72
2022/03/11 03:36:21;;;;;;;26.20;10.70;;;;;;;8.42;56.62;101803.66;5033842;28;20044;-72
2022/03/11 03:39:06;;;;;;;21.33;10.05;;;;;;;8.37;56.09;101800.13;5033687;28;20048;-72
2022/03/11 03:41:51;;;;;;;18.98;9.73;;;;;;;8.48;55.79;101797.09;5033376;28;20052;-71
2022/03/11 03:44:36;;;;;;;;;;;;;;;8.38;56.00;101807.19;5033639;28;20052;-72
2022/03/11 03:47:20;;;;;;;18.77;10.52;;;;;;;8.24;56.43;101804.16;5033708;28;19913;-71
2022/03/11 03:50:06;;;;;;;18.83;10.30;;;;;;;8.28;56.38;101807.94;5013930;28;20067;-71
2022/03/11 03:52:54;;;;;;;26.45;12.40;;;;;;;8.24;56.41;101798.75;5021718;28;20044;-71
2022/03/11 03:55:39;;;;;;;18.98;11.43;;;;;;;8.21;56.41;101807.44;5033590;28;20049;-72
2022/03/11 03:58:24;;;;;;;16.77;9.90;;;;;;;8.15;57.47;101812.03;5034075;28;20515;-71
2022/03/11 04:01:09;;;;;;;20.17;9.70;;;;;;;8.20;56.56;101803.09;5033551;28;20408;-73
2022/03/11 04:03:54;;;;;;;18.75;10.73;;;;;;;8.29;56.25;101797.94;5033687;28;20045;-72
2022/03/11 04:06:42;;;;;;;17.50;11.30;;;;;;;8.36;55.85;101807.44;5033521;28;20404;-72
2022/03/11 04:09:27;;;;;;;24.65;12.82;;;;;;;8.27;55.91;101806.34;5033121;28;20052;-72
2022/03/11 04:12:12;;;;;;;19.95;9.93;;;;;;;8.26;56.02;101802.00;5013718;28;20069;-71
2022/03/11 04:15:00;;;;;;;26.38;13.85;;;;;;;8.21;55.94;101804.72;5013633;28;20057;-72
2022/03/11 04:17:45;;;;;;;21.88;10.95;;;;;;;8.20;56.29;101805.81;5013400;28;20045;-71
2022/03/11 04:20:30;;;;;;;18.60;10.20;;;;;;;8.13;56.26;101794.41;5013225;28;20049;-72
2022/03/11 04:23:14;;;;;;;22.58;9.98;;;;;;;8.07;56.50;101792.81;5013130;28;20056;-72
2022/03/11 04:26:00;;;;;;;20.95;10.85;;;;;;;7.93;57.21;101805.25;5013097;28;20045;-72
2022/03/11 04:28:44;;;;;;;19.48;9.85;;;;;;;8.00;56.95;101801.22;5013249;28;20508;-72
2022/03/11 04:31:29;;;;;;;18.42;10.95;;;;;;;7.98;56.82;101799.84;5013252;28;20504;-72
2022/03/11 04:34:14;;;;;;;17.65;9.65;;;;;;;8.00;56.42;101795.78;5013237;28;20056;-72
2022/03/11 04:36:59;;;;;;;20.83;13.00;;;;;;;7.90;57.02;101811.22;5013167;28;20049;-72
2022/03/11 04:39:44;;;;;;;22.17;10.60;;;;;;;7.73;57.49;101809.59;5012840;28;20103;-72
2022/03/11 04:42:29;;;;;;;18.48;10.27;;;;;;;7.76;57.26;101812.84;5013120;28;20064;-72
2022/03/11 04:45:14;;;;;;;21.02;11.48;;;;;;;7.73;57.17;101798.75;5012955;28;20053;-72
2022/03/11 04:47:59;;;;;;;16.45;11.73;;;;;;;7.77;56.83;101804.47;5013026;28;20084;-71
2022/03/11 04:50:44;;;;;;;18.80;11.07;;;;;;;7.71;56.92;101809.06;5013044;28;20060;-71
2022/03/11 04:53:29;;;;;;;25.30;13.02;;;;;;;7.70;57.35;101807.44;5012777;28;20052;-72
2022/03/11 04:56:14;;;;;;;20.58;10.75;;;;;;;7.57;57.25;101807.94;5011456;28;20405;-72
2022/03/11 04:58:59;;;;;;;27.58;11.23;;;;;;;7.54;57.49;101804.97;5012663;28;20049;-71
2022/03/11 05:01:46;;;;;;;29.70;15.05;;;;;;;7.42;57.84;101809.78;5013424;28;20056;-71
2022/03/11 05:04:31;;;;;;;18.63;10.82;;;;;;;7.42;57.98;101805.19;5012223;28;20053;-72
2022/03/11 05:07:16;;;;;;;33.67;14.90;;;;;;;7.45;57.05;101806.56;5012461;28;20049;-72
2022/03/11 05:10:01;;;;;;;28.23;12.23;;;;;;;7.46;57.26;101811.72;5012721;28;20045;-71
2022/03/11 05:12:46;;;;;;;23.77;14.63;;;;;;;7.41;57.48;101808.19;5012518;28;20061;-72
2022/03/11 05:15:32;;;;;;;32.40;15.95;;;;;;;7.42;57.21;101815.22;5012509;28;20053;-72
2022/03/11 05:18:17;;;;;;;25.48;13.80;;;;;;;7.53;56.73;101811.44;5012581;28;20053;-72
2022/03/11 05:21:01;;;;;;;24.70;13.13;;;;;;;7.56;57.49;101817.16;5016333;28;20118;-72
2022/03/11 05:23:47;;;;;;;21.10;12.98;;;;;;;7.46;57.31;101806.31;5028873;28;20068;-72
2022/03/11 05:26:31;;;;;;;20.83;12.38;;;;;;;7.47;57.07;101824.16;5032103;28;20526;-72
2022/03/11 05:29:17;;;;;;;19.92;12.88;;;;;;;7.42;56.93;101826.84;5018434;28;20053;-71
2022/03/11 05:32:03;;;;;;;28.60;16.10;;;;;;;7.48;56.69;101820.38;5031863;28;20045;-71
2022/03/11 05:34:48;;;;;;;33.63;15.95;;;;;;;7.49;56.49;101827.41;5031951;28;20056;-71
2022/03/11 05:37:32;;;;;;;26.08;13.00;;;;;;;7.41;56.77;101824.44;5025327;28;20400;-72
2022/03/11 05:40:17;;;;;;;27.25;12.77;;;;;;;7.41;56.30;101819.03;5031673;28;20041;-72
2022/03/11 05:43:02;;;;;;;24.63;14.05;;;;;;;7.32;56.08;101835.75;5030432;28;20041;-71
2022/03/11 05:45:47;;;;;;;22.08;12.43;;;;;;;7.27;56.15;101832.22;5031757;28;20052;-72
2022/03/11 05:48:32;;;;;;;23.10;11.85;;;;;;;7.31;55.97;101836.81;5023015;28;20072;-71
2022/03/11 05:51:17;;;;;;;19.38;11.63;;;;;;;7.36;55.51;101844.16;5020705;28;20053;-72
2022/03/11 05:54:03;;;;;;;22.55;11.93;;;;;;;7.39;55.61;101845.53;5018982;28;20408;-71
2022/03/11 05:56:53;;;;;;;;;;;;;;;7.45;54.92;101845.28;5032069;28;20155;-71
2022/03/11 05:59:38;;;;;;;23.25;13.48;;;;;;;7.57;54.65;101848.53;5031645;28;19909;-71
2022/03/11 06:02:24;;;;;;;17.40;10.10;;;;;;;7.86;55.26;101858.91;5031807;28;20072;-67
2022/03/11 06:05:10;;;;;;;21.23;9.88;;;;;;;8.41;53.93;101860.84;5031763;28;20519;-68
2022/03/11 06:07:54;;;;;;;24.83;13.05;;;;;;;8.68;51.66;101868.66;5033045;28;20052;-68
2022/03/11 06:10:39;;;;;;;20.55;10.88;;;;;;;8.64;51.28;101862.97;5035483;28;20056;-67
2022/03/11 06:13:24;;;;;;;31.67;12.70;;;;;;;8.69;51.43;101864.84;5021352;28;20068;-68
2022/03/11 06:16:09;;;;;;;17.63;9.38;;;;;;;8.78;50.49;101868.66;5035832;28;20508;-68
2022/03/11 06:18:54;;;;;;;15.80;9.32;;;;;;;9.83;48.17;101877.41;5035628;28;20048;-70
2022/03/11 06:21:39;;;;;;;21.00;10.55;;;;;;;8.81;50.19;101870.78;5035586;28;20428;-73
2022/03/11 06:24:24;;;;;;;17.45;9.85;;;;;;;8.76;50.62;101870.81;5027164;28;20049;-73
2022/03/11 06:27:08;;;;;;;22.75;9.88;;;;;;;8.93;50.23;101879.47;5035363;28;20044;-73
2022/03/11 06:29:54;;;;;;;20.73;9.68;;;;;;;8.83;50.10;101880.28;5035346;28;20064;-73
2022/03/11 06:32:43;;;;;;;15.18;8.57;;;;;;;8.77;49.91;101880.56;5035231;28;20124;-73
2022/03/11 06:35:28;;;;;;;23.80;12.68;;;;;;;8.81;50.44;101878.94;5027182;28;20141;-73
2022/03/11 06:38:12;;;;;;;20.83;9.95;;;;;;;8.83;49.77;101888.44;5032401;28;20405;-73
2022/03/11 06:40:57;;;;;;;17.45;8.75;;;;;;;8.93;49.25;101885.69;5019662;28;20053;-74
2022/03/11 06:43:43;;;;;;;16.67;9.00;;;;;;;8.79;50.38;101886.53;5014262;28;20053;-73
2022/03/11 06:46:27;;;;;;;16.95;8.20;;;;;;;8.82;50.40;101894.13;5015162;28;20049;-73
2022/03/11 06:49:12;;;;;;;17.27;8.52;;;;;;;8.75;50.40;101886.25;5015023;28;20057;-73
2022/03/11 06:51:57;;;;;;;15.07;9.80;;;;;;;8.70;50.04;101894.41;5014598;28;20052;-74
2022/03/11 06:54:42;;;;;;;15.30;9.20;;;;;;;8.49;50.44;101900.94;5015257;28;20041;-73
2022/03/11 06:57:28;;;;;;;15.50;9.05;;;;;;;8.49;50.83;101899.03;5014990;28;20401;-73
2022/03/11 07:00:13;;;;;;;;;;;;;;;8.85;49.46;101896.28;5017705;28;20257;-73
2022/03/11 07:02:59;;;;;;;13.93;8.43;;;;;;;8.62;50.34;101899.59;5015014;28;19914;-73
2022/03/11 07:05:44;;;;;;;21.58;9.52;;;;;;;8.71;50.09;101900.66;5014668;28;20068;-73
2022/03/11 07:08:29;;;;;;;13.23;7.65;;;;;;;9.13;48.66;101895.69;5017530;28;20053;-73
2022/03/11 07:11:14;;;;;;;21.13;10.20;;;;;;;9.44;48.05;101899.09;5014757;28;20535;-73
2022/03/11 07:13:59;;;;;;;16.45;7.63;;;;;;;9.40;47.92;101906.13;5044662;28;20044;-73
2022/03/11 07:16:43;;;;;;;14.23;7.53;;;;;;;9.35;47.59;101909.69;5051965;28;20048;-74
2022/03/11 07:19:28;;;;;;;16.30;8.88;;;;;;;9.36;47.36;101907.78;5024235;28;20056;-73
2022/03/11 07:22:13;;;;;;;16.50;8.90;;;;;;;9.01;47.96;101914.16;5034319;28;20068;-73
2022/03/11 07:24:59;;;;;;;18.25;8.80;;;;;;;9.05;47.43;101908.97;5034292;28;20538;-73
2022/03/11 07:27:48;;;;;;;18.65;9.23;;;;;;;9.33;47.51;101920.03;5034163;28;20032;-73
2022/03/11 07:30:33;;;;;;;19.05;9.73;;;;;;;9.54;46.91;101914.50;5033961;28;20053;-73
2022/03/11 07:33:18;;;;;;;11.48;7.47;;;;;;;9.20;47.40;101914.34;5034518;28;20387;-73
2022/03/11 07:36:04;;;;;;;14.25;7.50;;;;;;;9.22;47.33;101915.72;5033220;28;20076;-74
2022/03/11 07:38:49;;;;;;;;;;;;;;;9.79;46.68;101927.97;5034233;28;20440;-73
2022/03/11 07:41:35;;;;;;;18.10;8.77;;;;;;;10.00;47.19;101925.94;5034118;28;20272;-74
2022/03/11 07:44:20;;;;;;;21.70;9.68;;;;;;;9.57;46.83;101925.63;5034127;28;20064;-74
2022/03/11 07:47:05;;;;;;;15.23;9.43;;;;;;;9.57;47.06;101957.38;5033881;28;20053;-74
2022/03/11 07:49:50;;;;;;;17.48;7.07;;;;;;;9.38;47.47;101925.44;5033803;28;20052;-73
2022/03/11 07:52:36;;;;;;;24.95;7.45;;;;;;;9.39;46.74;101928.97;5025972;28;20052;-73
2022/03/11 07:55:22;;;;;;;19.08;9.55;;;;;;;9.23;47.51;101932.81;5033855;28;20052;-73
2022/03/11 07:58:06;;;;;;;19.98;10.35;;;;;;;9.38;47.98;101935.47;5033772;28;20044;-73
2022/03/11 08:00:52;;;;;;;12.48;6.53;;;;;;;9.54;46.76;101936.25;5025314;28;20072;-74
2022/03/11 08:03:39;;;;;;;15.82;9.20;;;;;;;9.48;47.61;101935.44;5033806;28;20052;-74
2022/03/11 08:06:25;;;;;;;21.77;10.65;;;;;;;9.54;46.81;101949.81;5033612;28;20599;-73
2022/03/11 08:09:10;;;;;;;18.63;9.52;;;;;;;9.45;46.80;101950.38;5021476;28;20056;-73
2022/03/11 08:11:55;;;;;;;14.13;7.97;;;;;;;9.58;46.90;101942.72;5021829;28;20048;-73
2022/03/11 08:14:40;;;;;;;14.55;7.35;;;;;;;9.17;47.31;101942.88;5023937;28;20053;-74
2022/03/11 08:17:25;;;;;;;20.42;8.40;;;;;;;8.83;48.15;101933.72;5033952;28;20045;-73
2022/03/11 08:20:12;;;;;;;13.70;8.18;;;;;;;9.17;47.37;101940.16;5025023;28;20508;-73
2022/03/11 08:22:57;;;;;;;18.50;8.57;;;;;;;9.29;47.80;101945.28;5025200;28;20064;-74
2022/03/11 08:25:42;;;;;;;20.67;7.75;;;;;;;9.94;46.37;101938.75;5025305;28;20048;-73
2022/03/11 08:28:27;;;;;;;17.25;8.68;;;;;;;10.14;46.03;101951.41;5025185;28;20040;-73
2022/03/11 08:31:14;;;;;;;18.40;8.63;;;;;;;10.78;44.51;101947.66;5023156;28;20516;-73
2022/03/11 08:33:58;;;;;;;22.08;8.57;;;;;;;10.90;43.74;101948.91;5033392;28;20048;-73
2022/03/11 08:36:44;;;;;;;16.67;7.70;;;;;;;11.15;43.00;101948.66;5033431;28;20048;-74
2022/03/11 08:39:28;;;;;;;12.88;7.97;;;;;;;10.42;44.71;101945.22;5024095;28;20048;-74
2022/03/11 08:42:15;;;;;;;19.30;9.88;;;;;;;10.82;43.27;101937.84;5018338;28;20064;-74
2022/03/11 08:45:01;;;;;;;25.42;9.45;;;;;;;10.69;43.78;101953.72;5033155;28;20523;-74
2022/03/11 08:47:46;;;;;;;;;;;;;;;10.88;43.12;101953.81;5033369;28;20053;-73
2022/03/11 08:50:31;;;;;;;15.07;7.47;;;;;;;10.81;43.02;101945.19;5006369;28;19914;-74
2022/03/11 08:53:18;;;;;;;29.70;7.55;;;;;;;10.28;43.86;101950.50;5033331;28;20048;-74
2022/03/11 08:56:04;;;;;;;17.15;8.93;;;;;;;9.98;45.43;101963.44;5033162;28;20056;-73
2022/03/11 08:58:49;;;;;;;11.23;7.35;;;;;;;10.05;45.15;101958.53;5033362;28;20044;-73
2022/03/11 09:01:34;;;;;;;;;;;;;;;10.12;45.58;101956.28;5033742;28;20044;-74
2022/03/11 09:04:20;;;;;;;12.27;7.20;;;;;;;10.49;44.48;101961.22;5033094;28;19917;-74
2022/03/11 09:07:05;;;;;;;17.50;6.85;;;;;;;10.88;43.60;101959.25;5033269;28;20057;-74
2022/03/11 09:09:50;;;;;;;21.98;6.85;;;;;;;11.04;43.33;101958.00;5032814;28;20052;-73
2022/03/11 09:12:36;;;;;;;8.95;4.53;;;;;;;11.22;42.64;101952.94;5031981;28;20408;-74
2022/03/11 09:15:21;;;;;;;14.98;7.80;;;;;;;11.06;42.70;101947.66;5021736;28;20048;-74
2022/03/11 09:18:06;;;;;;;10.68;4.93;;;;;;;11.28;42.25;101954.47;5017356;28;20049;-74
2022/03/11 09:20:53;;;;;;;11.05;6.22;;;;;;;11.04;42.93;101957.19;5032262;28;20052;-74
2022/03/11 09:23:39;;;;;;;17.05;6.72;;;;;;;11.39;42.46;101959.53;5032309;28;20076;-73
2022/03/11 09:26:23;;;;;;;11.90;6.63;;;;;;;11.51;41.09;101950.97;5032159;28;20091;-73
2022/03/11 09:29:08;;;;;;;7.95;4.93;;;;;;;11.65;40.86;101961.94;5032218;28;20519;-74
2022/03/11 09:31:53;;;;;;;17.15;6.32;;;;;;;11.43;42.54;101959.75;5042045;22;20052;-78
2022/03/11 09:34:38;;;;;;;13.50;7.50;;;;;;;10.91;43.22;101960.59;5012181;28;20057;-77
2022/03/11 09:37:22;;;;;;;11.27;6.00;;;;;;;11.36;41.73;101951.16;5029144;28;20048;-78
2022/03/11 09:40:10;;;;;;;13.18;5.18;;;;;;;11.43;41.67;101952.41;5033218;28;20052;-76
2022/03/11 09:42:56;;;;;;;26.98;7.07;;;;;;;12.03;43.40;101951.94;5024251;28;20048;-75
2022/03/11 09:45:41;;;;;;;24.08;6.45;;;;;;;11.66;41.30;101955.41;5020104;28;20052;-77
2022/03/11 09:48:27;;;;;;;15.20;7.35;;;;;;;11.93;40.96;101953.72;5018633;28;20517;-81
2022/03/11 09:51:12;;;;;;;23.33;6.88;;;;;;;11.51;41.29;101953.69;5021817;28;20052;-80
2022/03/11 09:53:57;;;;;;;17.67;7.50;;;;;;;11.51;41.25;101954.50;5017312;28;20053;-80
2022/03/11 09:56:44;;;;;;;9.48;5.82;;;;;;;11.38;41.23;101951.66;5023964;28;20112;-81
2022/03/11 09:59:29;;;;;;;18.92;8.18;;;;;;;11.47;41.55;101949.94;5022405;28;20052;-76
2022/03/11 10:02:15;;;;;;;13.88;6.63;;;;;;;10.64;42.68;101944.78;5020744;28;20065;-76
2022/03/11 10:05:00;;;;;;;13.27;7.00;;;;;;;11.55;40.88;101960.16;5032341;28;20509;-77
2022/03/11 10:07:58;;;;;;;19.92;6.20;;;;;;;11.90;40.89;101953.47;5032834;28;20049;-77
2022/03/11 10:10:44;;;;;;;18.27;7.70;;;;;;;11.77;40.26;101959.66;5020206;28;20053;-77
2022/03/11 10:13:37;;;;;;;12.88;7.05;;;;;;;12.15;40.43;101963.22;5032213;28;20045;-77
2022/03/11 10:16:29;;;;;;;10.18;6.32;;;;;;;12.05;39.78;101964.16;5032241;28;20072;-77
2022/03/11 10:19:14;;;;;;;15.50;7.78;;;;;;;11.85;40.28;101951.63;5020143;28;20049;-77
2022/03/11 10:22:00;;;;;;;10.73;6.32;;;;;;;12.08;39.22;101958.13;5032161;28;20056;-77
2022/03/11 10:24:44;;;;;;;16.38;7.13;;;;;;;12.92;38.17;101964.41;5031929;28;20053;-77
2022/03/11 10:27:29;;;;;;;10.55;6.07;;;;;;;12.44;38.21;101952.97;5032521;28;20048;-79
2022/03/11 10:30:16;;;;;;;13.13;6.25;;;;;;;12.55;38.89;101945.41;5020415;28;20076;-78
2022/03/11 10:33:03;;;;;;;15.70;7.53;;;;;;;11.88;39.73;101951.06;5020456;28;20517;-78
2022/03/11 10:35:49;;;;;;;12.25;7.43;;;;;;;12.74;38.11;101957.09;5025028;28;20156;-79
2022/03/11 10:38:36;;;;;;;13.18;6.32;;;;;;;12.27;39.65;101958.13;5032381;28;20056;-77
2022/03/11 10:41:30;;;;;;;13.63;7.25;;;;;;;12.65;38.12;101950.69;5032346;28;20049;-77
2022/03/11 10:44:22;;;;;;;13.98;6.40;;;;;;;12.34;38.51;101942.22;5032227;28;20049;-77
2022/03/11 10:47:21;;;;;;;12.88;7.50;;;;;;;12.89;37.24;101939.63;5031994;28;20049;-76
2022/03/11 10:50:09;;;;;;;14.18;7.70;;;;;;;13.27;36.76;101939.19;5032031;28;20053;-77
2022/03/11 10:52:55;;;;;;;16.40;8.40;;;;;;;12.99;37.60;101931.25;5018798;28;20052;-77
2022/03/11 10:55:42;;;;;;;16.17;7.25;;;;;;;13.43;36.15;101934.25;5027838;28;20516;-77
2022/03/11 10:58:27;;;;;;;17.35;7.90;;;;;;;14.88;33.17;101931.13;5036315;28;20045;-80
2022/03/11 11:01:13;;;;;;;13.15;6.80;;;;;;;13.61;34.97;101927.06;5023228;28;20072;-77
2022/03/11 11:04:00;;;;;;;13.77;8.02;;;;;;;13.41;36.85;101925.53;5035034;28;20073;-78
2022/03/11 11:06:45;;;;;;;12.90;7.20;;;;;;;14.48;34.51;101930.22;5035065;28;20053;-76
2022/03/11 11:09:30;;;;;;;14.95;8.23;;;;;;;13.63;35.33;101917.41;5020685;28;20056;-76
2022/03/11 11:12:16;;;;;;;9.85;6.25;;;;;;;13.43;35.61;101920.59;5021434;28;20067;-77
2022/03/11 11:15:03;;;;;;;14.98;7.32;;;;;;;13.83;35.67;101926.28;5035472;28;20040;-77
2022/03/11 11:17:49;;;;;;;12.43;7.47;;;;;;;13.51;35.07;101928.06;5017755;28;20417;-78
2022/03/11 11:20:40;;;;;;;17.05;8.13;;;;;;;15.48;32.19;101913.31;5020222;28;20056;-79
2022/03/11 11:23:25;;;;;;;12.25;7.47;;;;;;;14.53;33.34;101916.44;5032073;28;20048;-78
2022/03/11 11:26:10;;;;;;;12.45;7.32;;;;;;;15.66;32.43;101918.53;5032979;28;20053;-78
2022/03/11 11:29:00;;;;;;;8.95;5.80;;;;;;;15.35;32.57;101909.56;5026099;28;20410;-79
2022/03/11 11:31:48;;;;;;;17.70;7.95;;;;;;;17.61;28.75;101916.06;5024589;28;20069;-78
2022/03/11 11:34:37;;;;;;;13.32;7.03;;;;;;;19.06;26.33;101906.78;5022273;28;20048;-78
2022/03/11 11:37:45;;;;;;;16.00;7.50;;;;;;;18.54;26.39;101910.13;5026187;28;20044;-77
2022/03/11 11:40:32;;;;;;;12.35;8.10;;;;;;;19.50;25.67;101900.41;5034949;28;20064;-78
2022/03/11 11:43:17;;;;;;;18.15;7.78;;;;;;;18.65;26.35;101905.81;5020371;28;20044;-79
2022/03/11 11:46:02;;;;;;;11.80;6.78;;;;;;;20.71;23.93;101896.41;5027086;28;20056;-78
2022/03/11 11:48:49;;;;;;;17.55;7.53;;;;;;;18.13;26.01;101890.91;5035729;28;20048;-78
2022/03/11 11:51:37;;;;;;;11.98;6.82;;;;;;;19.65;24.39;101890.59;5034857;28;20056;-77
2022/03/11 11:54:33;;;;;;;14.73;7.72;;;;;;;17.26;27.52;101881.63;5034574;28;20517;-77
2022/03/11 11:57:22;;;;;;;29.63;9.15;;;;;;;18.97;26.02;101903.34;5021945;28;20064;-77
2022/03/11 12:00:30;;;;;;;17.70;7.13;;;;;;;19.00;24.94;101900.69;5025297;28;20044;-78
2022/03/11 12:03:15;;;;;;;11.82;7.10;;;;;;;20.88;22.22;101898.81;5027778;28;20056;-77
2022/03/11 12:06:00;;;;;;;12.75;7.25;;;;;;;19.32;24.89;101892.66;5030801;28;20061;-77
2022/03/11 12:08:47;;;;;;;14.30;6.78;;;;;;;18.27;26.01;101883.16;5023628;28;20076;-79
2022/03/11 12:11:42;;;;;;;22.58;7.68;;;;;;;20.15;24.02;101884.59;5022401;28;20441;-77
2022/03/11 12:14:29;;;;;;;11.77;7.82;;;;;;;19.24;24.52;101875.09;5018099;28;20409;-77
2022/03/11 12:17:14;;;;;;;17.73;8.20;;;;;;;18.83;25.49;101889.09;5029955;28;20041;-77
2022/03/11 12:20:21;;;;;;;16.42;8.27;;;;;;;21.25;22.30;101877.25;5032943;28;20072;-77
2022/03/11 12:23:16;;;;;;;15.27;8.20;;;;;;;22.31;21.00;101877.94;5032124;28;20040;-77
2022/03/11 12:26:08;;;;;;;13.20;6.10;;;;;;;23.19;20.10;101875.97;5030168;28;20052;-77
2022/03/11 12:28:55;;;;;;;16.02;8.88;;;;;;;22.00;21.95;101863.09;5033063;28;20052;-76
2022/03/11 12:31:42;;;;;;;16.98;7.65;;;;;;;16.57;27.38;101852.47;5031545;28;20045;-77
2022/03/11 12:34:29;;;;;;;17.75;8.48;;;;;;;15.81;29.04;101846.75;5021854;28;20056;-77
2022/03/11 12:37:14;;;;;;;19.17;9.27;;;;;;;15.40;30.21;101841.69;5020555;28;20052;-78
2022/03/11 12:40:01;;;;;;;20.05;8.65;;;;;;;16.89;27.91;101847.53;5034551;28;20068;-76
2022/03/11 12:42:46;;;;;;;16.75;9.70;;;;;;;18.89;25.29;101846.38;5034386;28;20064;-77
2022/03/11 12:45:33;;;;;;;13.60;8.52;;;;;;;19.65;23.69;101824.38;5035023;28;20064;-78
2022/03/11 12:48:21;;;;;;;13.50;8.52;;;;;;;18.68;25.10;101833.50;5034221;28;20125;-79